sensor_id;sensor_type;location;lat;lon;timestamp;temperature;humidity
43679;DHT22;29279;50.858;4.392;2023-02-22T00:00:53;7.80;99.90
43679;DHT22;29279;50.858;4.392;2023-02-22T00:03:27;7.60;99.90
43679;DHT22;29279;50.858;4.392;2023-02-22T00:06:00;7.70;99.90
43679;DHT22;29279;50.858;4.392;2023-02-22T00:08:34;7.70;99.90
43679;DHT22;29279;50.858;4.392;2023-02-22T00:11:02;7.70;99.90
43679;DHT22;29279;50.858;4.392;2023-02-22T00:13:29;7.40;99.90
43679;DHT22;29279;50.858;4.392;2023-02-22T00:15:58;7.20;99.90
43679;DHT22;29279;50.858;4.392;2023-02-22T00:18:25;7.10;99.90
43679;DHT22;29279;50.858;4.392;2023-02-22T00:20:58;7.00;99.90
43679;DHT22;29279;50.858;4.392;2023-02-22T00:23:26;6.90;99.90
43679;DHT22;29279;50.858;4.392;2023-02-22T00:25:53;6.90;99.90
43679;DHT22;29279;50.858;4.392;2023-02-22T00:28:20;7.10;99.90
43679;DHT22;29279;50.858;4.392;2023-02-22T00:30:49;7.30;99.90
43679;DHT22;29279;50.858;4.392;2023-02-22T00:33:15;7.50;99.90
43679;DHT22;29279;50.858;4.392;2023-02-22T00:35:43;7.60;99.90
43679;DHT22;29279;50.858;4.392;2023-02-22T00:38:11;7.70;99.90
43679;DHT22;29279;50.858;4.392;2023-02-22T00:40:37;7.80;99.90
43679;DHT22;29279;50.858;4.392;2023-02-22T00:43:05;8.00;99.90
43679;DHT22;29279;50.858;4.392;2023-02-22T00:45:32;7.90;99.90
43679;DHT22;29279;50.858;4.392;2023-02-22T00:47:58;7.90;99.90
43679;DHT22;29279;50.858;4.392;2023-02-22T00:50:26;7.90;99.90
43679;DHT22;29279;50.858;4.392;2023-02-22T00:52:53;8.00;99.90
43679;DHT22;29279;50.858;4.392;2023-02-22T00:55:45;7.90;99.90
43679;DHT22;29279;50.858;4.392;2023-02-22T00:58:10;7.90;99.90
43679;DHT22;29279;50.858;4.392;2023-02-22T01:00:39;7.90;99.90
43679;DHT22;29279;50.858;4.392;2023-02-22T01:03:08;8.00;99.90
43679;DHT22;29279;50.858;4.392;2023-02-22T01:05:35;8.10;99.90
43679;DHT22;29279;50.858;4.392;2023-02-22T01:08:03;8.10;99.90
43679;DHT22;29279;50.858;4.392;2023-02-22T01:10:31;8.10;99.90
43679;DHT22;29279;50.858;4.392;2023-02-22T01:12:58;8.10;99.90
43679;DHT22;29279;50.858;4.392;2023-02-22T01:15:26;8.00;99.90
43679;DHT22;29279;50.858;4.392;2023-02-22T01:17:53;7.90;99.90
43679;DHT22;29279;50.858;4.392;2023-02-22T01:20:23;7.90;99.90
43679;DHT22;29279;50.858;4.392;2023-02-22T01:22:51;7.70;99.90
43679;DHT22;29279;50.858;4.392;2023-02-22T01:25:26;7.40;99.90
43679;DHT22;29279;50.858;4.392;2023-02-22T01:27:53;7.10;99.90
43679;DHT22;29279;50.858;4.392;2023-02-22T01:30:25;6.90;99.90
43679;DHT22;29279;50.858;4.392;2023-02-22T01:32:51;6.80;99.90
43679;DHT22;29279;50.858;4.392;2023-02-22T01:35:20;6.90;99.90
43679;DHT22;29279;50.858;4.392;2023-02-22T01:37:46;6.90;99.90
43679;DHT22;29279;50.858;4.392;2023-02-22T01:40:34;7.10;99.90
43679;DHT22;29279;50.858;4.392;2023-02-22T01:43:02;7.20;99.90
43679;DHT22;29279;50.858;4.392;2023-02-22T01:48:07;7.20;99.90
43679;DHT22;29279;50.858;4.392;2023-02-22T01:53:31;7.30;99.90
43679;DHT22;29279;50.858;4.392;2023-02-22T01:55:58;7.30;99.90
43679;DHT22;29279;50.858;4.392;2023-02-22T01:58:25;7.40;99.90
43679;DHT22;29279;50.858;4.392;2023-02-22T02:00:51;7.50;99.90
43679;DHT22;29279;50.858;4.392;2023-02-22T02:03:21;7.60;99.90
43679;DHT22;29279;50.858;4.392;2023-02-22T02:05:49;7.60;99.90
43679;DHT22;29279;50.858;4.392;2023-02-22T02:08:32;7.60;99.90
43679;DHT22;29279;50.858;4.392;2023-02-22T02:11:05;7.50;99.90
43679;DHT22;29279;50.858;4.392;2023-02-22T02:13:31;7.70;99.90
43679;DHT22;29279;50.858;4.392;2023-02-22T02:15:57;7.60;99.90
43679;DHT22;29279;50.858;4.392;2023-02-22T02:18:25;7.60;99.90
43679;DHT22;29279;50.858;4.392;2023-02-22T02:32:58;7.50;99.90
43679;DHT22;29279;50.858;4.392;2023-02-22T02:35:40;7.50;99.90
43679;DHT22;29279;50.858;4.392;2023-02-22T02:41:15;7.60;99.90
43679;DHT22;29279;50.858;4.392;2023-02-22T02:43:58;7.60;99.90
43679;DHT22;29279;50.858;4.392;2023-02-22T02:49:10;7.60;99.90
43679;DHT22;29279;50.858;4.392;2023-02-22T02:51:40;7.70;99.90
43679;DHT22;29279;50.858;4.392;2023-02-22T02:54:07;7.30;99.90
43679;DHT22;29279;50.858;4.392;2023-02-22T02:56:38;6.80;99.90
43679;DHT22;29279;50.858;4.392;2023-02-22T03:04:55;6.20;99.90
43679;DHT22;29279;50.858;4.392;2023-02-22T03:13:06;6.00;99.90
43679;DHT22;29279;50.858;4.392;2023-02-22T03:24:32;6.10;99.90
43679;DHT22;29279;50.858;4.392;2023-02-22T03:27:05;6.10;99.90
43679;DHT22;29279;50.858;4.392;2023-02-22T03:29:37;6.40;99.90
43679;DHT22;29279;50.858;4.392;2023-02-22T03:32:07;6.40;99.90
43679;DHT22;29279;50.858;4.392;2023-02-22T03:34:36;6.40;99.90
43679;DHT22;29279;50.858;4.392;2023-02-22T03:37:10;6.20;99.90
43679;DHT22;29279;50.858;4.392;2023-02-22T03:39:39;6.20;99.90
43679;DHT22;29279;50.858;4.392;2023-02-22T03:42:10;6.30;99.90
43679;DHT22;29279;50.858;4.392;2023-02-22T03:44:39;6.20;99.90
43679;DHT22;29279;50.858;4.392;2023-02-22T03:47:10;6.10;99.90
43679;DHT22;29279;50.858;4.392;2023-02-22T03:49:37;6.00;99.90
43679;DHT22;29279;50.858;4.392;2023-02-22T03:52:06;6.10;99.90
43679;DHT22;29279;50.858;4.392;2023-02-22T03:54:32;6.30;99.90
43679;DHT22;29279;50.858;4.392;2023-02-22T03:57:07;6.60;99.90
43679;DHT22;29279;50.858;4.392;2023-02-22T03:59:34;6.80;99.90
43679;DHT22;29279;50.858;4.392;2023-02-22T04:02:00;6.60;99.90
43679;DHT22;29279;50.858;4.392;2023-02-22T04:04:26;6.50;99.90
43679;DHT22;29279;50.858;4.392;2023-02-22T04:06:52;6.50;99.90
43679;DHT22;29279;50.858;4.392;2023-02-22T04:09:18;6.70;99.90
43679;DHT22;29279;50.858;4.392;2023-02-22T04:11:45;6.80;99.90
43679;DHT22;29279;50.858;4.392;2023-02-22T04:14:11;6.90;99.90
43679;DHT22;29279;50.858;4.392;2023-02-22T04:16:37;7.10;99.90
43679;DHT22;29279;50.858;4.392;2023-02-22T04:19:03;7.10;99.90
43679;DHT22;29279;50.858;4.392;2023-02-22T04:21:28;7.20;99.90
43679;DHT22;29279;50.858;4.392;2023-02-22T04:23:54;7.10;99.90
43679;DHT22;29279;50.858;4.392;2023-02-22T04:26:20;7.10;99.90
43679;DHT22;29279;50.858;4.392;2023-02-22T04:28:45;7.10;99.90
43679;DHT22;29279;50.858;4.392;2023-02-22T04:31:11;7.20;99.90
43679;DHT22;29279;50.858;4.392;2023-02-22T04:33:36;7.20;99.90
43679;DHT22;29279;50.858;4.392;2023-02-22T04:36:02;7.30;99.90
43679;DHT22;29279;50.858;4.392;2023-02-22T04:38:28;7.20;99.90
43679;DHT22;29279;50.858;4.392;2023-02-22T04:40:54;7.30;99.90
43679;DHT22;29279;50.858;4.392;2023-02-22T04:43:20;7.30;99.90
43679;DHT22;29279;50.858;4.392;2023-02-22T04:45:46;7.40;99.90
43679;DHT22;29279;50.858;4.392;2023-02-22T04:48:12;7.60;99.90
43679;DHT22;29279;50.858;4.392;2023-02-22T04:50:37;7.70;99.90
43679;DHT22;29279;50.858;4.392;2023-02-22T04:53:03;7.50;99.90
43679;DHT22;29279;50.858;4.392;2023-02-22T04:55:29;7.50;99.90
43679;DHT22;29279;50.858;4.392;2023-02-22T04:57:55;7.50;99.90
43679;DHT22;29279;50.858;4.392;2023-02-22T05:00:22;7.20;99.90
43679;DHT22;29279;50.858;4.392;2023-02-22T05:02:48;7.00;99.90
43679;DHT22;29279;50.858;4.392;2023-02-22T05:05:19;6.90;99.90
43679;DHT22;29279;50.858;4.392;2023-02-22T05:07:48;6.80;99.90
43679;DHT22;29279;50.858;4.392;2023-02-22T05:10:15;6.80;99.90
43679;DHT22;29279;50.858;4.392;2023-02-22T05:12:40;6.80;99.90
43679;DHT22;29279;50.858;4.392;2023-02-22T05:15:07;7.00;99.90
43679;DHT22;29279;50.858;4.392;2023-02-22T05:17:34;6.90;99.90
43679;DHT22;29279;50.858;4.392;2023-02-22T05:20:00;6.80;99.90
43679;DHT22;29279;50.858;4.392;2023-02-22T05:22:27;6.70;99.90
43679;DHT22;29279;50.858;4.392;2023-02-22T05:24:53;6.80;99.90
43679;DHT22;29279;50.858;4.392;2023-02-22T05:27:19;6.90;99.90
43679;DHT22;29279;50.858;4.392;2023-02-22T05:29:45;7.00;99.90
43679;DHT22;29279;50.858;4.392;2023-02-22T05:32:11;7.20;99.90
43679;DHT22;29279;50.858;4.392;2023-02-22T05:34:37;7.20;99.90
43679;DHT22;29279;50.858;4.392;2023-02-22T05:37:03;7.20;99.90
43679;DHT22;29279;50.858;4.392;2023-02-22T05:39:29;7.00;99.90
43679;DHT22;29279;50.858;4.392;2023-02-22T05:41:55;7.00;99.90
43679;DHT22;29279;50.858;4.392;2023-02-22T05:44:21;6.90;99.90
43679;DHT22;29279;50.858;4.392;2023-02-22T05:46:46;6.90;99.90
43679;DHT22;29279;50.858;4.392;2023-02-22T05:49:12;6.90;99.90
43679;DHT22;29279;50.858;4.392;2023-02-22T05:51:38;6.90;99.90
43679;DHT22;29279;50.858;4.392;2023-02-22T05:54:04;6.90;99.90
43679;DHT22;29279;50.858;4.392;2023-02-22T05:56:29;6.90;99.90
43679;DHT22;29279;50.858;4.392;2023-02-22T05:58:56;6.90;99.90
43679;DHT22;29279;50.858;4.392;2023-02-22T06:01:23;6.80;99.90
43679;DHT22;29279;50.858;4.392;2023-02-22T06:03:49;6.80;99.90
43679;DHT22;29279;50.858;4.392;2023-02-22T06:06:16;6.90;99.90
43679;DHT22;29279;50.858;4.392;2023-02-22T06:08:42;6.90;99.90
43679;DHT22;29279;50.858;4.392;2023-02-22T06:11:08;6.90;99.90
43679;DHT22;29279;50.858;4.392;2023-02-22T06:13:35;7.00;99.90
43679;DHT22;29279;50.858;4.392;2023-02-22T06:16:02;6.90;99.90
43679;DHT22;29279;50.858;4.392;2023-02-22T06:18:27;7.00;99.90
43679;DHT22;29279;50.858;4.392;2023-02-22T06:20:58;7.00;99.90
43679;DHT22;29279;50.858;4.392;2023-02-22T06:23:25;7.00;99.90
43679;DHT22;29279;50.858;4.392;2023-02-22T06:25:50;6.90;99.90
43679;DHT22;29279;50.858;4.392;2023-02-22T06:28:16;6.90;99.90
43679;DHT22;29279;50.858;4.392;2023-02-22T06:30:42;6.80;99.90
43679;DHT22;29279;50.858;4.392;2023-02-22T06:33:08;6.80;99.90
43679;DHT22;29279;50.858;4.392;2023-02-22T06:35:34;6.80;99.90
43679;DHT22;29279;50.858;4.392;2023-02-22T06:38:00;6.80;99.90
43679;DHT22;29279;50.858;4.392;2023-02-22T06:40:26;6.90;99.90
43679;DHT22;29279;50.858;4.392;2023-02-22T06:42:54;6.90;99.90
43679;DHT22;29279;50.858;4.392;2023-02-22T06:45:20;6.70;99.90
43679;DHT22;29279;50.858;4.392;2023-02-22T06:47:46;6.70;99.90
43679;DHT22;29279;50.858;4.392;2023-02-22T06:50:24;6.80;99.90
43679;DHT22;29279;50.858;4.392;2023-02-22T06:52:51;7.10;99.90
43679;DHT22;29279;50.858;4.392;2023-02-22T06:55:22;7.20;99.90
43679;DHT22;29279;50.858;4.392;2023-02-22T06:57:48;7.60;99.90
43679;DHT22;29279;50.858;4.392;2023-02-22T07:00:20;7.60;99.90
43679;DHT22;29279;50.858;4.392;2023-02-22T07:02:47;7.60;99.90
43679;DHT22;29279;50.858;4.392;2023-02-22T07:05:16;7.80;99.90
43679;DHT22;29279;50.858;4.392;2023-02-22T07:07:42;7.80;99.90
43679;DHT22;29279;50.858;4.392;2023-02-22T07:10:15;7.90;99.90
43679;DHT22;29279;50.858;4.392;2023-02-22T07:12:41;8.10;99.90
43679;DHT22;29279;50.858;4.392;2023-02-22T07:15:06;8.30;99.90
43679;DHT22;29279;50.858;4.392;2023-02-22T07:17:32;8.40;99.90
43679;DHT22;29279;50.858;4.392;2023-02-22T07:19:58;8.50;99.90
43679;DHT22;29279;50.858;4.392;2023-02-22T07:22:23;8.50;99.90
43679;DHT22;29279;50.858;4.392;2023-02-22T07:24:49;8.40;99.90
43679;DHT22;29279;50.858;4.392;2023-02-22T07:27:15;8.40;99.90
43679;DHT22;29279;50.858;4.392;2023-02-22T07:29:42;8.30;99.90
43679;DHT22;29279;50.858;4.392;2023-02-22T07:32:08;8.30;99.90
43679;DHT22;29279;50.858;4.392;2023-02-22T07:34:34;8.30;99.90
43679;DHT22;29279;50.858;4.392;2023-02-22T07:37:00;8.30;99.90
43679;DHT22;29279;50.858;4.392;2023-02-22T07:39:25;8.40;99.90
43679;DHT22;29279;50.858;4.392;2023-02-22T07:41:51;8.40;99.90
43679;DHT22;29279;50.858;4.392;2023-02-22T07:44:17;8.50;99.90
43679;DHT22;29279;50.858;4.392;2023-02-22T07:46:46;8.80;99.90
43679;DHT22;29279;50.858;4.392;2023-02-22T07:49:13;8.80;99.90
43679;DHT22;29279;50.858;4.392;2023-02-22T07:51:39;8.90;99.90
43679;DHT22;29279;50.858;4.392;2023-02-22T07:54:05;9.00;99.90
43679;DHT22;29279;50.858;4.392;2023-02-22T07:56:30;9.20;99.90
43679;DHT22;29279;50.858;4.392;2023-02-22T07:58:56;9.20;99.90
43679;DHT22;29279;50.858;4.392;2023-02-22T08:01:22;9.30;99.90
43679;DHT22;29279;50.858;4.392;2023-02-22T08:03:49;9.30;99.90
43679;DHT22;29279;50.858;4.392;2023-02-22T08:06:15;9.40;99.90
43679;DHT22;29279;50.858;4.392;2023-02-22T08:08:41;9.50;99.90
43679;DHT22;29279;50.858;4.392;2023-02-22T08:11:07;9.60;99.90
43679;DHT22;29279;50.858;4.392;2023-02-22T08:13:33;9.70;99.90
43679;DHT22;29279;50.858;4.392;2023-02-22T08:15:59;9.80;99.90
43679;DHT22;29279;50.858;4.392;2023-02-22T08:18:24;9.90;99.90
43679;DHT22;29279;50.858;4.392;2023-02-22T08:20:51;9.90;99.90
43679;DHT22;29279;50.858;4.392;2023-02-22T08:23:19;9.90;99.90
43679;DHT22;29279;50.858;4.392;2023-02-22T08:25:45;10.10;99.90
43679;DHT22;29279;50.858;4.392;2023-02-22T08:28:16;10.20;99.90
43679;DHT22;29279;50.858;4.392;2023-02-22T08:30:42;10.30;99.90
43679;DHT22;29279;50.858;4.392;2023-02-22T08:33:09;10.20;99.90
43679;DHT22;29279;50.858;4.392;2023-02-22T08:35:36;10.30;99.90
43679;DHT22;29279;50.858;4.392;2023-02-22T08:38:04;10.30;99.90
43679;DHT22;29279;50.858;4.392;2023-02-22T08:40:33;10.40;99.90
43679;DHT22;29279;50.858;4.392;2023-02-22T08:42:59;10.50;99.90
43679;DHT22;29279;50.858;4.392;2023-02-22T08:45:26;10.60;99.90
43679;DHT22;29279;50.858;4.392;2023-02-22T08:47:51;10.50;99.90
43679;DHT22;29279;50.858;4.392;2023-02-22T08:50:22;10.70;99.90
43679;DHT22;29279;50.858;4.392;2023-02-22T08:52:56;10.60;99.90
43679;DHT22;29279;50.858;4.392;2023-02-22T08:55:25;10.60;99.90
43679;DHT22;29279;50.858;4.392;2023-02-22T08:57:51;10.60;99.90
43679;DHT22;29279;50.858;4.392;2023-02-22T09:00:18;10.80;99.90
43679;DHT22;29279;50.858;4.392;2023-02-22T09:02:44;10.70;99.90
43679;DHT22;29279;50.858;4.392;2023-02-22T09:05:10;10.80;99.90
43679;DHT22;29279;50.858;4.392;2023-02-22T09:07:36;10.80;99.90
43679;DHT22;29279;50.858;4.392;2023-02-22T09:10:01;10.60;99.90
43679;DHT22;29279;50.858;4.392;2023-02-22T09:12:27;10.20;99.90
43679;DHT22;29279;50.858;4.392;2023-02-22T09:14:52;10.00;99.90
43679;DHT22;29279;50.858;4.392;2023-02-22T09:17:18;10.10;99.90
43679;DHT22;29279;50.858;4.392;2023-02-22T09:19:44;10.10;99.90
43679;DHT22;29279;50.858;4.392;2023-02-22T09:22:10;10.10;99.90
43679;DHT22;29279;50.858;4.392;2023-02-22T09:24:35;10.10;99.90
43679;DHT22;29279;50.858;4.392;2023-02-22T09:27:01;10.10;99.90
43679;DHT22;29279;50.858;4.392;2023-02-22T09:29:29;10.20;99.90
43679;DHT22;29279;50.858;4.392;2023-02-22T09:31:55;10.30;99.90
43679;DHT22;29279;50.858;4.392;2023-02-22T09:34:22;10.30;99.90
43679;DHT22;29279;50.858;4.392;2023-02-22T09:36:57;10.30;99.90
43679;DHT22;29279;50.858;4.392;2023-02-22T09:39:23;10.20;99.90
43679;DHT22;29279;50.858;4.392;2023-02-22T09:47:19;10.20;99.90
43679;DHT22;29279;50.858;4.392;2023-02-22T09:49:55;10.20;99.90
43679;DHT22;29279;50.858;4.392;2023-02-22T09:55:41;10.40;99.90
43679;DHT22;29279;50.858;4.392;2023-02-22T10:03:54;10.80;99.90
43679;DHT22;29279;50.858;4.392;2023-02-22T10:06:23;10.90;99.90
43679;DHT22;29279;50.858;4.392;2023-02-22T10:08:52;11.00;99.90
43679;DHT22;29279;50.858;4.392;2023-02-22T10:11:51;11.20;99.90
43679;DHT22;29279;50.858;4.392;2023-02-22T10:14:50;11.30;99.90
43679;DHT22;29279;50.858;4.392;2023-02-22T10:23:35;11.70;99.90
43679;DHT22;29279;50.858;4.392;2023-02-22T10:26:42;11.80;99.90
43679;DHT22;29279;50.858;4.392;2023-02-22T10:31:40;12.00;99.90
43679;DHT22;29279;50.858;4.392;2023-02-22T10:34:11;12.10;99.90
43679;DHT22;29279;50.858;4.392;2023-02-22T10:36:38;12.30;99.90
43679;DHT22;29279;50.858;4.392;2023-02-22T10:39:30;12.20;99.90
43679;DHT22;29279;50.858;4.392;2023-02-22T10:42:00;12.30;99.90
43679;DHT22;29279;50.858;4.392;2023-02-22T10:44:34;12.40;99.90
43679;DHT22;29279;50.858;4.392;2023-02-22T10:47:02;12.40;99.90
43679;DHT22;29279;50.858;4.392;2023-02-22T10:49:50;12.60;99.90
43679;DHT22;29279;50.858;4.392;2023-02-22T10:52:25;12.70;99.90
43679;DHT22;29279;50.858;4.392;2023-02-22T10:54:54;12.70;99.90
43679;DHT22;29279;50.858;4.392;2023-02-22T10:57:40;12.70;99.90
43679;DHT22;29279;50.858;4.392;2023-02-22T11:00:20;12.50;99.90
43679;DHT22;29279;50.858;4.392;2023-02-22T11:03:01;12.30;99.90
43679;DHT22;29279;50.858;4.392;2023-02-22T11:05:36;12.10;99.90
43679;DHT22;29279;50.858;4.392;2023-02-22T11:10:50;12.10;99.90
43679;DHT22;29279;50.858;4.392;2023-02-22T11:13:37;11.80;99.90
43679;DHT22;29279;50.858;4.392;2023-02-22T11:16:25;11.80;99.90
43679;DHT22;29279;50.858;4.392;2023-02-22T11:19:17;11.80;99.90
43679;DHT22;29279;50.858;4.392;2023-02-22T11:21:49;11.80;99.90
43679;DHT22;29279;50.858;4.392;2023-02-22T11:24:20;11.80;99.90
43679;DHT22;29279;50.858;4.392;2023-02-22T11:26:52;11.80;99.90
43679;DHT22;29279;50.858;4.392;2023-02-22T11:29:26;11.90;99.90
43679;DHT22;29279;50.858;4.392;2023-02-22T11:31:53;12.10;99.90
43679;DHT22;29279;50.858;4.392;2023-02-22T11:36:51;12.20;99.90
43679;DHT22;29279;50.858;4.392;2023-02-22T11:41:49;12.20;99.90
43679;DHT22;29279;50.858;4.392;2023-02-22T11:44:26;12.20;99.90
43679;DHT22;29279;50.858;4.392;2023-02-22T11:46:54;12.30;99.90
43679;DHT22;29279;50.858;4.392;2023-02-22T11:49:23;12.60;99.90
43679;DHT22;29279;50.858;4.392;2023-02-22T11:52:20;12.80;99.90
43679;DHT22;29279;50.858;4.392;2023-02-22T12:05:48;12.70;99.90
43679;DHT22;29279;50.858;4.392;2023-02-22T12:21:34;14.50;99.90
43679;DHT22;29279;50.858;4.392;2023-02-22T12:24:29;14.40;99.90
43679;DHT22;29279;50.858;4.392;2023-02-22T12:27:06;14.10;99.90
43679;DHT22;29279;50.858;4.392;2023-02-22T12:29:50;13.70;99.90
43679;DHT22;29279;50.858;4.392;2023-02-22T12:32:40;13.60;99.90
43679;DHT22;29279;50.858;4.392;2023-02-22T12:35:23;13.40;99.90
43679;DHT22;29279;50.858;4.392;2023-02-22T12:38:13;13.40;99.90
43679;DHT22;29279;50.858;4.392;2023-02-22T12:43:50;13.40;99.90
43679;DHT22;29279;50.858;4.392;2023-02-22T12:49:09;13.60;99.90
43679;DHT22;29279;50.858;4.392;2023-02-22T12:51:53;13.40;99.90
43679;DHT22;29279;50.858;4.392;2023-02-22T13:00:17;13.20;99.90
43679;DHT22;29279;50.858;4.392;2023-02-22T13:03:00;13.10;99.90
43679;DHT22;29279;50.858;4.392;2023-02-22T13:05:33;13.20;99.90
43679;DHT22;29279;50.858;4.392;2023-02-22T13:08:33;13.20;99.90
43679;DHT22;29279;50.858;4.392;2023-02-22T13:13:52;13.30;99.90
43679;DHT22;29279;50.858;4.392;2023-02-22T13:19:32;13.10;99.90
43679;DHT22;29279;50.858;4.392;2023-02-22T13:22:24;13.10;99.90
43679;DHT22;29279;50.858;4.392;2023-02-22T13:27:37;13.00;99.90
43679;DHT22;29279;50.858;4.392;2023-02-22T13:30:13;12.90;99.90
43679;DHT22;29279;50.858;4.392;2023-02-22T13:32:44;13.00;99.90
43679;DHT22;29279;50.858;4.392;2023-02-22T13:35:14;12.90;99.90
43679;DHT22;29279;50.858;4.392;2023-02-22T13:38:02;12.70;99.90
43679;DHT22;29279;50.858;4.392;2023-02-22T13:49:10;12.00;99.90
43679;DHT22;29279;50.858;4.392;2023-02-22T13:54:32;12.00;99.90
43679;DHT22;29279;50.858;4.392;2023-02-22T13:57:01;12.10;99.90
43679;DHT22;29279;50.858;4.392;2023-02-22T13:59:35;12.00;99.90
43679;DHT22;29279;50.858;4.392;2023-02-22T14:02:03;12.00;99.90
43679;DHT22;29279;50.858;4.392;2023-02-22T14:06:58;12.00;99.90
43679;DHT22;29279;50.858;4.392;2023-02-22T14:09:47;11.90;99.90
43679;DHT22;29279;50.858;4.392;2023-02-22T14:18:00;11.90;99.90
43679;DHT22;29279;50.858;4.392;2023-02-22T14:20:31;11.80;99.90
43679;DHT22;29279;50.858;4.392;2023-02-22T14:26:28;11.80;99.90
43679;DHT22;29279;50.858;4.392;2023-02-22T14:31:29;11.80;99.90
43679;DHT22;29279;50.858;4.392;2023-02-22T14:34:12;11.80;99.90
43679;DHT22;29279;50.858;4.392;2023-02-22T14:39:21;12.00;99.90
43679;DHT22;29279;50.858;4.392;2023-02-22T14:42:00;12.00;99.90
43679;DHT22;29279;50.858;4.392;2023-02-22T14:47:26;12.10;99.90
43679;DHT22;29279;50.858;4.392;2023-02-22T14:49:58;12.00;99.90
43679;DHT22;29279;50.858;4.392;2023-02-22T14:52:29;11.90;99.90
43679;DHT22;29279;50.858;4.392;2023-02-22T14:54:57;12.10;99.90
43679;DHT22;29279;50.858;4.392;2023-02-22T14:57:44;12.00;99.90
43679;DHT22;29279;50.858;4.392;2023-02-22T15:00:23;11.80;99.90
43679;DHT22;29279;50.858;4.392;2023-02-22T15:02:58;11.80;99.90
43679;DHT22;29279;50.858;4.392;2023-02-22T15:05:26;11.70;99.90
43679;DHT22;29279;50.858;4.392;2023-02-22T15:08:00;11.60;99.90
43679;DHT22;29279;50.858;4.392;2023-02-22T15:13:04;11.50;99.90
43679;DHT22;29279;50.858;4.392;2023-02-22T15:15:35;11.50;99.90
43679;DHT22;29279;50.858;4.392;2023-02-22T15:18:01;11.50;99.90
43679;DHT22;29279;50.858;4.392;2023-02-22T15:20:33;11.50;99.90
43679;DHT22;29279;50.858;4.392;2023-02-22T15:22:59;11.50;99.90
43679;DHT22;29279;50.858;4.392;2023-02-22T15:25:27;11.60;99.90
43679;DHT22;29279;50.858;4.392;2023-02-22T15:28:00;11.70;99.90
43679;DHT22;29279;50.858;4.392;2023-02-22T15:30:29;11.50;99.90
43679;DHT22;29279;50.858;4.392;2023-02-22T15:33:08;11.40;99.90
43679;DHT22;29279;50.858;4.392;2023-02-22T15:35:33;11.40;99.90
43679;DHT22;29279;50.858;4.392;2023-02-22T15:38:05;11.40;99.90
43679;DHT22;29279;50.858;4.392;2023-02-22T15:40:32;11.20;99.90
43679;DHT22;29279;50.858;4.392;2023-02-22T15:43:04;11.20;99.90
43679;DHT22;29279;50.858;4.392;2023-02-22T15:45:33;11.10;99.90
43679;DHT22;29279;50.858;4.392;2023-02-22T15:48:00;11.00;99.90
43679;DHT22;29279;50.858;4.392;2023-02-22T15:50:34;11.00;99.90
43679;DHT22;29279;50.858;4.392;2023-02-22T15:53:24;11.00;99.90
43679;DHT22;29279;50.858;4.392;2023-02-22T15:55:59;11.20;99.90
43679;DHT22;29279;50.858;4.392;2023-02-22T15:58:27;11.10;99.90
43679;DHT22;29279;50.858;4.392;2023-02-22T16:01:02;11.00;99.90
43679;DHT22;29279;50.858;4.392;2023-02-22T16:03:34;10.90;99.90
43679;DHT22;29279;50.858;4.392;2023-02-22T16:06:08;10.80;99.90
43679;DHT22;29279;50.858;4.392;2023-02-22T16:08:46;10.80;99.90
43679;DHT22;29279;50.858;4.392;2023-02-22T16:13:58;10.70;99.90
43679;DHT22;29279;50.858;4.392;2023-02-22T16:16:30;10.80;99.90
43679;DHT22;29279;50.858;4.392;2023-02-22T16:22:33;11.10;99.90
43679;DHT22;29279;50.858;4.392;2023-02-22T16:27:50;10.90;99.90
43679;DHT22;29279;50.858;4.392;2023-02-22T16:32:46;10.90;99.90
43679;DHT22;29279;50.858;4.392;2023-02-22T16:35:12;10.90;99.90
43679;DHT22;29279;50.858;4.392;2023-02-22T16:37:54;10.80;99.90
43679;DHT22;29279;50.858;4.392;2023-02-22T16:40:43;10.80;99.90
43679;DHT22;29279;50.858;4.392;2023-02-22T16:43:15;11.00;99.90
43679;DHT22;29279;50.858;4.392;2023-02-22T16:45:41;11.00;99.90
43679;DHT22;29279;50.858;4.392;2023-02-22T16:48:18;10.90;99.90
43679;DHT22;29279;50.858;4.392;2023-02-22T16:50:44;10.70;99.90
43679;DHT22;29279;50.858;4.392;2023-02-22T16:53:10;10.80;99.90
43679;DHT22;29279;50.858;4.392;2023-02-22T16:55:36;11.00;99.90
43679;DHT22;29279;50.858;4.392;2023-02-22T16:58:03;11.00;99.90
43679;DHT22;29279;50.858;4.392;2023-02-22T17:00:29;10.90;99.90
43679;DHT22;29279;50.858;4.392;2023-02-22T17:03:03;11.00;99.90
43679;DHT22;29279;50.858;4.392;2023-02-22T17:05:30;11.10;99.90
43679;DHT22;29279;50.858;4.392;2023-02-22T17:07:56;11.10;99.90
43679;DHT22;29279;50.858;4.392;2023-02-22T17:10:22;11.00;99.90
43679;DHT22;29279;50.858;4.392;2023-02-22T17:12:49;11.10;99.90
43679;DHT22;29279;50.858;4.392;2023-02-22T17:15:20;11.00;99.90
43679;DHT22;29279;50.858;4.392;2023-02-22T17:17:49;11.00;99.90
43679;DHT22;29279;50.858;4.392;2023-02-22T17:20:15;11.10;99.90
43679;DHT22;29279;50.858;4.392;2023-02-22T17:22:49;11.00;99.90
43679;DHT22;29279;50.858;4.392;2023-02-22T17:25:23;10.90;99.90
43679;DHT22;29279;50.858;4.392;2023-02-22T17:27:50;11.00;99.90
43679;DHT22;29279;50.858;4.392;2023-02-22T17:30:16;10.90;99.90
43679;DHT22;29279;50.858;4.392;2023-02-22T17:32:42;11.00;99.90
43679;DHT22;29279;50.858;4.392;2023-02-22T17:35:08;10.90;99.90
43679;DHT22;29279;50.858;4.392;2023-02-22T17:37:34;10.90;99.90
43679;DHT22;29279;50.858;4.392;2023-02-22T17:39:59;10.70;99.90
43679;DHT22;29279;50.858;4.392;2023-02-22T17:42:25;10.70;99.90
43679;DHT22;29279;50.858;4.392;2023-02-22T17:44:51;10.90;99.90
43679;DHT22;29279;50.858;4.392;2023-02-22T17:47:16;10.90;99.90
43679;DHT22;29279;50.858;4.392;2023-02-22T17:49:42;11.00;99.90
43679;DHT22;29279;50.858;4.392;2023-02-22T17:52:08;11.00;99.90
43679;DHT22;29279;50.858;4.392;2023-02-22T17:54:34;11.00;99.90
43679;DHT22;29279;50.858;4.392;2023-02-22T17:57:00;11.10;99.90
43679;DHT22;29279;50.858;4.392;2023-02-22T17:59:26;11.20;99.90
43679;DHT22;29279;50.858;4.392;2023-02-22T18:01:51;11.10;99.90
43679;DHT22;29279;50.858;4.392;2023-02-22T18:04:17;11.10;99.90
43679;DHT22;29279;50.858;4.392;2023-02-22T18:06:43;11.20;99.90
43679;DHT22;29279;50.858;4.392;2023-02-22T18:09:10;11.20;99.90
43679;DHT22;29279;50.858;4.392;2023-02-22T18:11:37;11.20;99.90
43679;DHT22;29279;50.858;4.392;2023-02-22T18:14:03;11.20;99.90
43679;DHT22;29279;50.858;4.392;2023-02-22T18:16:32;11.30;99.90
43679;DHT22;29279;50.858;4.392;2023-02-22T18:18:57;11.20;99.90
43679;DHT22;29279;50.858;4.392;2023-02-22T18:21:26;11.20;99.90
43679;DHT22;29279;50.858;4.392;2023-02-22T18:23:51;11.20;99.90
43679;DHT22;29279;50.858;4.392;2023-02-22T18:26:21;11.30;99.90
43679;DHT22;29279;50.858;4.392;2023-02-22T18:28:47;11.40;99.90
43679;DHT22;29279;50.858;4.392;2023-02-22T18:31:16;11.40;99.90
43679;DHT22;29279;50.858;4.392;2023-02-22T18:33:44;11.30;99.90
43679;DHT22;29279;50.858;4.392;2023-02-22T18:36:11;11.20;99.90
43679;DHT22;29279;50.858;4.392;2023-02-22T18:38:38;11.10;99.90